Weather observations for the past three days for
Falls International Airport
Imperial (Metric)
Date Time (cdt) Wind (mph) Vis. (mi.) Weather Sky Cond. Temperature (ºF) Relative Humidity Wind Chill (°F) Heat Index (°F) Pressure Precipitation (in)
Air Dwpt 6 hour altimeter (in) sea level (mb) 1 hr 3 hr 6 hr
Max. Min.
06 14:54 Vrbl 6 10.00 Fair CLR 82 68 63% 85 30.03 1016.7
06 13:54 SE 6 10.00 Fair CLR 81 68 65% 84 30.04 1017.1
06 12:54 S 8 10.00 Fair CLR 79 68 79 57 69% 81 30.06 1017.9
06 11:54 SE 6 10.00 Fair CLR 75.9 66.9 74% 77 30.09 1018.8
06 10:54 Calm 10.00 Fair CLR 71.1 64.9 81% 30.09 1019.1
06 09:54 E 6 10.00 Fair CLR 66 62.1 87% 30.1 1019.4
06 08:54 SE 6 10.00 A Few Clouds FEW002 61 60.1 97% 30.11 1019.7
06 07:54 E 3 0.25 Fog VV002 57.9 57.9 100% 30.11 1019.8
06 06:54 Calm 0.25 Fog VV002 57 57 59 54 100% 30.1 1019.5
06 05:54 Calm 1.75 Fog/Mist OVC002 55.9 55.9 100% 30.08 1018.7
06 04:51 SE 3 0.25 Fog VV004 54 54 100% 30.08 1018.8
06 03:54 E 3 7.00 Fair CLR 55.9 55.9 100% 30.07 1018.4
06 02:54 SE 5 2.00 Fog/Mist FEW002 57 57 100% 30.07 1018.3
06 01:54 SE 6 10.00 Fair CLR 59 59 100% 30.08 1018.6
06 00:54 SE 6 10.00 Overcast OVC019 61 61 68 55 100% 30.1 1019.6
05 23:54 Calm 0.50 Fog CLR 57 57 100% 30.1 1019.4
05 22:54 Calm 10.00 Fair CLR 60.1 60.1 100% 30.08 1018.9
05 21:54 E 3 10.00 Fair CLR 62.1 61 96% 30.07 1018.5
05 20:54 SE 5 10.00 Fair CLR 62.1 61 96% 30.06 1018.0
05 19:54 E 5 10.00 Fair CLR 63 61 93% 30.05 1017.6
05 18:54 SE 6 10.00 Fair CLR 68 62.1 71.1 66.9 81% 30.05 1017.4
05 17:54 SE 9 10.00 A Few Clouds FEW020 70 63 79% 30.03 1017.0
05 16:54 SE 8 10.00 A Few Clouds FEW019 70 62.1 76% 30.04 1017.3
05 15:54 SE 8 10.00 Partly Cloudy SCT022 69.1 62.1 78% 30.06 1017.9
05 14:54 SE 7 10.00 Mostly Cloudy BKN019 69.1 62.1 78% 30.08 1018.7
05 12:54 Vrbl 5 10.00 Overcast FEW012 OVC022 68 63 68 62.1 84% 30.12 1020.1
05 11:54 SE 3 10.00 Overcast OVC010 66 62.1 87% 30.12 1020.0
05 10:54 SE 6 10.00 Overcast OVC012 63 61 93% 30.09 1019.1
05 09:54 SE 5 10.00 Overcast OVC011 63 62.1 97% 30.1 1019.3
05 08:54 SE 7 10.00 Overcast SCT010 OVC015 63 62.1 97% 30.1 1019.3
05 07:54 SE 3 10.00 Overcast OVC014 63 63 100% 30.08 1018.8
05 06:54 E 7 5.00 Fog/Mist BKN002 OVC011 63 62.1 63 61 97% 30.04 1017.3
05 05:54 Calm 3.00 Fog/Mist FEW002 OVC025 62.1 62.1 100% 30.04 1017.4
05 04:54 SE 3 9.00 Overcast OVC025 62.1 62.1 100% 30.05 1017.7
05 03:54 Calm 10.00 Overcast OVC024 63 62.1 97% 30.06 1017.9
05 02:54 Calm 10.00 Overcast SCT009 OVC023 63 62.1 97% 30.05 1017.7
05 01:54 E 3 10.00 Overcast OVC023 63 62.1 97% 30.05 1017.7
05 00:54 Calm 10.00 Overcast OVC021 63 62.1 64.9 62.1 97% 30.06 1017.9
04 23:54 SE 5 10.00 Overcast OVC022 63 62.1 97% 30.05 1017.7
04 22:54 SE 3 10.00 Overcast OVC024 63 62.1 97% 30.05 1017.7
04 21:54 E 3 10.00 Overcast OVC021 63 62.1 97% 30.06 1018.1
04 20:54 Calm 10.00 Overcast OVC011 63 62.1 97% 30.06 1017.9
04 19:54 SE 3 10.00 Overcast OVC011 64 61 90% 30.04 1017.2
04 18:54 SE 7 10.00 Overcast OVC012 64.9 61 66 64 87% 30.02 1016.8
04 16:54 NE 3 10.00 Overcast OVC011 66 62.1 87% 30.02 1016.7
04 15:54 NE 7 10.00 Overcast OVC010 66 62.1 87% 30.01 1016.2
04 14:54 Calm 10.00 Overcast OVC012 66 61 84% 30.02 1016.5
04 13:54 E 6 10.00 Overcast OVC010 64.9 61 87% 30.01 1016.4
04 11:54 E 8 10.00 Overcast OVC010 64 60.1 87% 30 1016.1
04 10:54 E 7 10.00 Overcast OVC009 63 60.1 90% 29.99 1015.8
04 09:54 E 5 10.00 Overcast OVC010 62.1 59 90% 29.98 1015.4
04 08:54 E 8 10.00 Overcast OVC012 62.1 59 90% 29.97 1014.9
04 07:54 E 5 10.00 Overcast OVC015 61 60.1 97% 29.95 1014.4
04 06:54 E 6 10.00 Overcast OVC016 60.1 59 62.1 57.9 96% 29.93 1013.8
04 05:54 E 6 10.00 Overcast OVC014 60.1 57.9 93% 29.92 1013.2
04 04:54 E 6 10.00 Overcast OVC014 60.1 59 96% 29.92 1013.2
04 03:54 NE 5 10.00 Overcast OVC015 59 57.9 96% 29.92 1013.0
04 02:54 N 5 10.00 A Few Clouds FEW016 59 59 100% 29.9 1012.5
04 01:54 SE 6 10.00 Fair CLR 59 57.9 96% 29.89 1011.9
04 00:54 SE 12 10.00 Fair CLR 62.1 60.1 64.9 62.1 93% 29.86 1011.0 0.36
03 23:54 SE 13 10.00 Light Rain FEW070 SCT090 BKN110 63 62.1 97% 29.87 1011.5 0.09
03 22:54 S 5 4.00 Rain Fog/Mist SCT011 BKN055 OVC070 64 63 96% 29.93 1013.4 0.03
03 21:54 E 7 10.00 Mostly Cloudy BKN120 64 62.1 93% 29.83 1010.1 0.24
03 20:54 E 8 10.00 A Few Clouds FEW110 64.9 62.1 90% 29.84 1010.5 0.06
03 19:54 E 16 5.00 Rain Fog/Mist SCT080 BKN095 OVC110 64 63 96% 29.89 1012.4 0.18
03 18:54 SE 5 7.00 Thunderstorm Light Rain FEW045 BKN080 OVC110 64 63 78.1 64 96% 29.95 1014.5 0.28 0.28
03 17:54 E 6 10.00 Mostly Cloudy BKN060 BKN070 72 60.1 66% 29.88 1011.9
03 16:54 E 7 10.00 Mostly Cloudy BKN070 73 57.9 59% 29.87 1011.7
03 15:54 E 8 10.00 Mostly Cloudy BKN075 75.9 59 56% 78 29.89 1012.1
Date Time (cdt) Wind (mph) Vis. (mi.) Weather Sky Cond. Air Dwpt Max. Min. Relative Humidity Wind Chill (°F) Heat Index (°F) altimeter (in) sea level (mb) 1 hr 3 hr 6 hr
6 hour
Temperature (ºF) Pressure Precipitation (in)